Time;durP1;ratioP1;P1;durP2;ratioP2;P2;SDS_P1;SDS_P2;PMS_P1;PMS_P2;Temp;Humidity;BMP_temperature;BMP_pressure;BME280_temperature;BME280_humidity;BME280_pressure;Samples;Min_cycle;Max_cycle;Signal;HPM_P1;HPM_P2
2022/05/08 00:01:47;;;;;;;;;;;18.70;87.00;;;;;;5035792;28;19928;-76
2022/05/08 00:04:14;;;;;;;;;;;17.90;85.90;;;;;;5055649;28;19932;-74
2022/05/08 00:06:41;;;;;;;;;;;17.90;86.80;;;;;;5056527;28;19970;-78
2022/05/08 00:09:07;;;;;;;;;;;17.90;86.10;;;;;;5040080;28;19959;-75
2022/05/08 00:11:35;;;;;;;;;;;17.90;86.20;;;;;;5036918;28;19924;-77
2022/05/08 00:14:03;;;;;;;;;;;18.20;86.60;;;;;;5065202;28;19928;-75
2022/05/08 00:16:30;;;;;;;;;;;18.70;86.80;;;;;;5058081;28;19928;-75
2022/05/08 00:18:56;;;;;;;;;;;18.50;86.50;;;;;;5061500;28;19928;-76
2022/05/08 00:21:23;;;;;;;;;;;17.90;85.80;;;;;;5058428;28;19924;-79
2022/05/08 00:23:50;;;;;;;;;;;17.90;85.80;;;;;;5037895;28;20345;-78
2022/05/08 00:26:18;;;;;;;;;;;17.90;86.10;;;;;;5067645;28;20527;-75
2022/05/08 00:28:45;;;;;;;;;;;18.70;86.90;;;;;;5040988;28;19924;-76
2022/05/08 00:31:13;;;;;;;;;;;17.90;85.50;;;;;;5061461;28;19945;-76
2022/05/08 00:33:40;;;;;;;;;;;18.60;86.50;;;;;;5058241;28;19931;-77
2022/05/08 00:36:07;;;;;;;;;;;17.90;86.00;;;;;;5047365;28;19932;-76
2022/05/08 00:38:34;;;;;;;;;;;17.90;85.60;;;;;;5036368;28;19925;-76
2022/05/08 00:41:01;;;;;;;;;;;17.90;85.90;;;;;;5053359;28;19929;-77
2022/05/08 00:43:31;;;;;;;;;;;17.90;85.90;;;;;;5038442;28;20395;-76
2022/05/08 00:45:58;;;;;;;;;;;17.80;85.90;;;;;;5038815;28;19932;-75
2022/05/08 00:48:27;;;;;;;;;;;17.90;86.00;;;;;;5038695;28;19925;-75
2022/05/08 00:50:55;;;;;;;;;;;17.80;85.70;;;;;;5045902;28;20008;-78
2022/05/08 00:53:23;;;;;;;;;;;17.80;85.50;;;;;;5038015;28;19928;-79
2022/05/08 00:55:50;;;;;;;;;;;17.80;85.60;;;;;;5038161;28;19948;-76
2022/05/08 00:58:17;;;;;;;;;;;17.80;85.30;;;;;;5034797;28;20387;-74
2022/05/08 01:00:45;;;;;;;;;;;17.80;85.80;;;;;;5033072;28;19982;-76
2022/05/08 01:03:12;;;;;;;;;;;17.80;85.60;;;;;;5038046;28;20323;-78
2022/05/08 01:05:42;;;;;;;;;;;18.60;86.10;;;;;;5037540;28;19925;-77
2022/05/08 01:08:09;;;;;;;;;;;17.80;85.20;;;;;;5040882;28;19925;-77
2022/05/08 01:10:36;;;;;;;;;;;18.20;85.60;;;;;;5036695;28;20484;-77
2022/05/08 01:13:03;;;;;;;;;;;17.80;85.60;;;;;;5034997;28;19924;-75
2022/05/08 01:15:30;;;;;;;;;;;17.80;85.60;;;;;;5042088;28;19925;-75
2022/05/08 01:17:57;;;;;;;;;;;17.80;85.40;;;;;;5038040;28;19963;-76
2022/05/08 01:20:24;;;;;;;;;;;17.90;85.50;;;;;;5042239;28;19925;-77
2022/05/08 01:22:52;;;;;;;;;;;17.80;85.40;;;;;;5041171;28;19925;-77
2022/05/08 01:25:19;;;;;;;;;;;17.80;85.60;;;;;;5039030;28;19955;-75
2022/05/08 01:27:46;;;;;;;;;;;18.30;86.70;;;;;;5042231;28;19987;-77
2022/05/08 01:30:12;;;;;;;;;;;17.80;85.10;;;;;;5041954;28;19924;-77
2022/05/08 01:32:39;;;;;;;;;;;17.80;85.50;;;;;;5042539;28;19924;-75
2022/05/08 01:35:06;;;;;;;;;;;17.80;85.30;;;;;;5040111;28;19956;-74
2022/05/08 01:37:33;;;;;;;;;;;18.20;85.70;;;;;;5059853;28;19964;-76
2022/05/08 01:40:01;;;;;;;;;;;17.80;85.60;;;;;;5033455;28;20023;-77
2022/05/08 01:42:28;;;;;;;;;;;17.80;85.60;;;;;;5058995;28;19942;-76
2022/05/08 01:44:54;;;;;;;;;;;17.80;86.30;;;;;;5054482;28;19925;-80
2022/05/08 01:50:06;;;;;;;;;;;17.80;85.70;;;;;;5060154;28;19928;-76
2022/05/08 01:52:33;;;;;;;;;;;17.80;85.10;;;;;;5067937;28;19993;-76
2022/05/08 01:55:02;;;;;;;;;;;17.80;85.50;;;;;;5055445;28;19950;-75
2022/05/08 01:57:30;;;;;;;;;;;17.80;85.50;;;;;;5030034;28;19936;-75
2022/05/08 01:59:56;;;;;;;;;;;17.80;85.60;;;;;;5052974;28;19939;-76
2022/05/08 02:02:23;;;;;;;;;;;17.80;85.80;;;;;;5054928;28;20369;-75
2022/05/08 02:04:50;;;;;;;;;;;17.90;85.60;;;;;;5050681;28;19929;-77
2022/05/08 02:07:17;;;;;;;;;;;17.80;84.80;;;;;;5061554;28;19929;-76
2022/05/08 02:09:44;;;;;;;;;;;18.10;85.20;;;;;;5061086;28;19925;-77
2022/05/08 02:12:12;;;;;;;;;;;17.70;85.00;;;;;;5058900;28;19928;-76
2022/05/08 02:14:41;;;;;;;;;;;17.80;84.80;;;;;;5059340;28;19933;-75
2022/05/08 02:17:08;;;;;;;;;;;17.80;84.80;;;;;;5055268;28;19936;-77
2022/05/08 02:19:35;;;;;;;;;;;17.70;84.70;;;;;;5083042;28;19923;-77
2022/05/08 02:22:02;;;;;;;;;;;17.70;84.80;;;;;;5067812;28;19931;-77
2022/05/08 02:24:28;;;;;;;;;;;17.80;85.40;;;;;;5043874;28;19989;-78
2022/05/08 02:26:55;;;;;;;;;;;17.80;85.70;;;;;;5040784;28;19924;-78
2022/05/08 02:29:23;;;;;;;;;;;17.70;85.00;;;;;;5057929;28;19982;-77
2022/05/08 02:31:50;;;;;;;;;;;17.90;85.00;;;;;;5041269;28;19928;-76
2022/05/08 02:34:20;;;;;;;;;;;17.70;84.90;;;;;;5057926;28;20026;-75
2022/05/08 02:36:46;;;;;;;;;;;18.00;84.80;;;;;;5037874;28;19932;-78
2022/05/08 02:39:13;;;;;;;;;;;17.70;85.00;;;;;;5060629;28;19924;-77
2022/05/08 02:41:40;;;;;;;;;;;17.70;84.90;;;;;;5058096;28;19935;-77
2022/05/08 02:44:06;;;;;;;;;;;17.70;84.80;;;;;;5059417;28;19945;-78
2022/05/08 02:46:34;;;;;;;;;;;17.80;84.80;;;;;;5029658;28;19936;-75
2022/05/08 02:49:01;;;;;;;;;;;18.70;86.20;;;;;;5053673;28;19929;-76
2022/05/08 02:51:29;;;;;;;;;;;17.70;85.00;;;;;;5036292;28;19929;-77
2022/05/08 02:53:55;;;;;;;;;;;17.70;85.30;;;;;;5057424;28;20366;-77
2022/05/08 02:59:07;;;;;;;;;;;17.70;84.90;;;;;;5038813;28;19955;-79
2022/05/08 03:01:35;;;;;;;;;;;17.70;85.20;;;;;;5048294;28;20037;-77
2022/05/08 03:04:02;;;;;;;;;;;19.30;86.70;;;;;;5048436;28;19928;-77
2022/05/08 03:06:29;;;;;;;;;;;17.70;84.60;;;;;;5061409;28;19967;-76
2022/05/08 03:08:55;;;;;;;;;;;17.70;84.80;;;;;;5060694;28;20003;-76
2022/05/08 03:11:29;;;;;;;;;;;17.70;84.90;;;;;;5038616;28;20019;-76
2022/05/08 03:13:56;;;;;;;;;;;17.70;84.50;;;;;;5028727;28;19947;-76
2022/05/08 03:16:23;;;;;;;;;;;17.70;85.00;;;;;;5054861;28;19932;-78
2022/05/08 03:18:51;;;;;;;;;;;17.70;85.00;;;;;;5050918;28;19931;-75
2022/05/08 03:21:18;;;;;;;;;;;17.70;84.70;;;;;;5059836;28;20048;-78
2022/05/08 03:23:45;;;;;;;;;;;17.70;84.40;;;;;;5059812;28;19952;-76
2022/05/08 03:26:19;;;;;;;;;;;17.70;84.30;;;;;;5060800;28;19947;-78
2022/05/08 03:28:46;;;;;;;;;;;17.70;84.00;;;;;;5058281;28;19924;-76
2022/05/08 03:31:13;;;;;;;;;;;17.70;83.90;;;;;;5059471;28;20015;-76
2022/05/08 03:33:40;;;;;;;;;;;17.70;83.60;;;;;;5055401;28;19967;-75
2022/05/08 03:36:10;;;;;;;;;;;17.70;83.70;;;;;;5059454;28;19928;-77
2022/05/08 03:38:40;;;;;;;;;;;17.70;83.60;;;;;;5061442;28;20542;-75
2022/05/08 03:41:08;;;;;;;;;;;17.70;83.50;;;;;;5058283;28;19935;-78
2022/05/08 03:43:36;;;;;;;;;;;17.70;83.60;;;;;;5054482;28;19982;-76
2022/05/08 03:46:02;;;;;;;;;;;17.70;83.30;;;;;;5052911;28;19928;-78
2022/05/08 03:48:29;;;;;;;;;;;17.70;83.20;;;;;;5043075;28;20015;-77
2022/05/08 03:50:56;;;;;;;;;;;17.60;83.20;;;;;;5056587;28;19932;-77
2022/05/08 03:53:25;;;;;;;;;;;17.70;83.40;;;;;;5052044;28;20003;-76
2022/05/08 03:55:51;;;;;;;;;;;18.40;84.30;;;;;;5056961;28;20007;-77
2022/05/08 03:58:18;;;;;;;;;;;19.10;84.80;;;;;;5039496;28;19924;-75
2022/05/08 04:00:45;;;;;;;;;;;17.60;82.90;;;;;;5037237;28;19931;-75
2022/05/08 04:03:11;;;;;;;;;;;17.70;83.80;;;;;;5060462;28;19925;-76
2022/05/08 04:05:38;;;;;;;;;;;18.60;84.30;;;;;;5048957;28;19944;-75
2022/05/08 04:08:08;;;;;;;;;;;18.00;83.50;;;;;;5064289;28;20007;-77
2022/05/08 04:10:36;;;;;;;;;;;17.60;82.90;;;;;;5054751;28;19939;-75
2022/05/08 04:13:03;;;;;;;;;;;17.60;82.90;;;;;;5060741;28;19993;-75
2022/05/08 04:18:14;;;;;;;;;;;18.10;83.30;;;;;;5060292;28;20363;-77
2022/05/08 04:20:41;;;;;;;;;;;17.60;82.70;;;;;;5048892;28;19924;-75
2022/05/08 04:25:54;;;;;;;;;;;18.30;84.10;;;;;;5054070;28;19924;-77
2022/05/08 04:28:20;;;;;;;;;;;17.60;82.70;;;;;;5056579;28;20298;-76
2022/05/08 04:30:48;;;;;;;;;;;17.60;82.40;;;;;;5039632;28;20019;-76
2022/05/08 04:33:15;;;;;;;;;;;17.60;82.50;;;;;;5057131;28;19947;-77
2022/05/08 04:35:42;;;;;;;;;;;17.60;82.30;;;;;;5049780;28;19944;-76
2022/05/08 04:38:11;;;;;;;;;;;17.60;82.20;;;;;;5014547;28;20406;-76
2022/05/08 04:40:39;;;;;;;;;;;17.60;83.10;;;;;;5018142;28;19979;-76
2022/05/08 04:43:07;;;;;;;;;;;17.60;82.20;;;;;;5010939;28;19975;-78
2022/05/08 04:45:34;;;;;;;;;;;17.60;82.30;;;;;;5016732;28;19944;-75
2022/05/08 04:48:05;;;;;;;;;;;17.60;82.20;;;;;;5029501;28;19925;-75
2022/05/08 04:50:32;;;;;;;;;;;17.60;82.10;;;;;;5024474;28;19991;-76
2022/05/08 04:52:59;;;;;;;;;;;17.60;82.00;;;;;;5020642;28;19960;-79
2022/05/08 04:55:26;;;;;;;;;;;17.60;81.90;;;;;;5018708;28;19930;-76
2022/05/08 04:57:52;;;;;;;;;;;17.70;82.00;;;;;;5019736;28;20169;-76
2022/05/08 05:00:21;;;;;;;;;;;17.60;81.90;;;;;;5028941;28;20012;-79
2022/05/08 05:02:56;;;;;;;;;;;17.60;81.80;;;;;;5038115;28;19929;-78
2022/05/08 05:05:23;;;;;;;;;;;17.50;81.80;;;;;;5013475;28;19933;-77
2022/05/08 05:07:50;;;;;;;;;;;17.60;81.70;;;;;;5023661;28;19933;-77
2022/05/08 05:10:16;;;;;;;;;;;19.10;83.20;;;;;;5015409;28;20454;-77
2022/05/08 05:12:43;;;;;;;;;;;17.60;81.60;;;;;;5008579;28;19964;-77
2022/05/08 05:15:11;;;;;;;;;;;17.60;81.60;;;;;;5025794;28;19924;-78
2022/05/08 05:17:39;;;;;;;;;;;17.60;81.60;;;;;;5025662;28;19936;-78
2022/05/08 05:20:07;;;;;;;;;;;17.60;81.60;;;;;;5024912;28;19925;-75
2022/05/08 05:22:34;;;;;;;;;;;17.60;81.90;;;;;;5011241;28;19925;-76
2022/05/08 05:25:02;;;;;;;;;;;17.60;82.10;;;;;;5018631;28;19933;-75
2022/05/08 05:27:29;;;;;;;;;;;17.60;81.60;;;;;;5008617;28;20369;-78
2022/05/08 05:29:56;;;;;;;;;;;17.60;82.40;;;;;;5025292;28;20334;-77
2022/05/08 05:32:23;;;;;;;;;;;17.60;81.60;;;;;;5021160;28;20019;-79
2022/05/08 05:34:51;;;;;;;;;;;17.60;81.60;;;;;;5011807;28;19932;-76
2022/05/08 05:37:17;;;;;;;;;;;17.60;82.40;;;;;;5058920;28;20038;-77
2022/05/08 05:39:44;;;;;;;;;;;17.80;81.60;;;;;;5058252;28;19928;-76
2022/05/08 05:42:11;;;;;;;;;;;17.60;81.30;;;;;;5055903;28;19924;-76
2022/05/08 05:44:38;;;;;;;;;;;18.30;81.90;;;;;;5060778;28;20015;-74
2022/05/08 05:49:51;;;;;;;;;;;17.60;81.10;;;;;;5057351;28;19932;-78
2022/05/08 05:52:18;;;;;;;;;;;17.70;81.30;;;;;;5058802;28;19928;-75
2022/05/08 05:54:45;;;;;;;;;;;17.60;81.10;;;;;;5061048;28;20015;-75
2022/05/08 05:57:11;;;;;;;;;;;17.60;81.10;;;;;;5040255;28;19934;-76
2022/05/08 05:59:38;;;;;;;;;;;17.60;81.10;;;;;;5058144;28;20015;-74
2022/05/08 06:02:05;;;;;;;;;;;17.60;81.00;;;;;;5062244;28;19928;-75
2022/05/08 06:04:32;;;;;;;;;;;17.60;80.90;;;;;;5060090;28;19932;-77
2022/05/08 06:07:00;;;;;;;;;;;17.50;80.60;;;;;;5060209;28;19933;-76
2022/05/08 06:09:28;;;;;;;;;;;17.60;80.70;;;;;;5056949;28;20443;-74
2022/05/08 06:11:55;;;;;;;;;;;17.60;80.70;;;;;;5058595;28;20495;-74
2022/05/08 06:14:22;;;;;;;;;;;17.60;80.70;;;;;;5060315;28;19929;-76
2022/05/08 06:16:48;;;;;;;;;;;17.60;80.60;;;;;;5060982;28;20085;-76
2022/05/08 06:19:18;;;;;;;;;;;17.60;80.40;;;;;;5060188;28;19932;-77
2022/05/08 06:21:46;;;;;;;;;;;18.00;80.90;;;;;;5046011;28;19924;-76
2022/05/08 06:24:17;;;;;;;;;;;17.00;79.70;;;;;;5061377;28;19978;-76
2022/05/08 06:26:44;;;;;;;;;;;17.60;80.20;;;;;;5059482;28;19928;-76
2022/05/08 06:29:10;;;;;;;;;;;17.60;80.10;;;;;;5060665;28;19924;-76
2022/05/08 06:31:37;;;;;;;;;;;17.60;80.10;;;;;;5052247;28;19929;-76
2022/05/08 06:34:04;;;;;;;;;;;18.70;81.50;;;;;;5049883;28;19929;-75
2022/05/08 06:36:32;;;;;;;;;;;17.60;80.10;;;;;;5056317;28;19932;-74
2022/05/08 06:38:59;;;;;;;;;;;17.60;80.00;;;;;;5062390;28;20031;-75
2022/05/08 06:41:28;;;;;;;;;;;17.60;80.00;;;;;;5056666;28;20015;-76
2022/05/08 06:43:55;;;;;;;;;;;16.40;78.50;;;;;;5059622;28;19928;-78
2022/05/08 06:46:21;;;;;;;;;;;17.60;79.60;;;;;;5054432;28;20400;-75
2022/05/08 06:48:49;;;;;;;;;;;17.90;79.90;;;;;;5059342;28;19931;-77
2022/05/08 06:51:16;;;;;;;;;;;17.60;79.60;;;;;;5038640;28;19951;-74
2022/05/08 06:53:43;;;;;;;;;;;17.60;79.60;;;;;;5037926;28;19924;-75
2022/05/08 06:56:12;;;;;;;;;;;17.60;79.60;;;;;;5060704;28;19964;-76
2022/05/08 07:01:38;;;;;;;;;;;17.60;79.30;;;;;;5058938;28;19924;-76
2022/05/08 07:04:05;;;;;;;;;;;17.60;79.20;;;;;;5062444;28;20027;-75
2022/05/08 07:06:32;;;;;;;;;;;17.60;79.20;;;;;;5057264;28;20931;-74
2022/05/08 07:08:59;;;;;;;;;;;17.60;79.10;;;;;;5059968;28;20039;-75
2022/05/08 07:11:26;;;;;;;;;;;17.60;79.00;;;;;;5042463;28;19925;-74
2022/05/08 07:13:56;;;;;;;;;;;17.60;79.00;;;;;;5040164;28;20620;-73
2022/05/08 07:16:24;;;;;;;;;;;17.60;78.90;;;;;;5056724;28;20027;-74
2022/05/08 07:18:51;;;;;;;;;;;17.60;78.70;;;;;;5053497;28;19952;-75
2022/05/08 07:21:19;;;;;;;;;;;17.60;78.80;;;;;;5052867;28;19982;-76
2022/05/08 07:23:46;;;;;;;;;;;17.60;78.80;;;;;;5069098;28;19924;-77
2022/05/08 07:26:13;;;;;;;;;;;17.60;78.80;;;;;;5064386;28;19924;-75
2022/05/08 07:28:40;;;;;;;;;;;17.60;78.80;;;;;;5055313;28;19924;-74
2022/05/08 07:31:09;;;;;;;;;;;17.60;78.80;;;;;;5018281;28;19932;-76
2022/05/08 07:33:38;;;;;;;;;;;17.60;78.30;;;;;;5053416;28;19925;-76
2022/05/08 07:36:13;;;;;;;;;;;17.60;77.90;;;;;;5062487;28;19928;-76
2022/05/08 07:38:42;;;;;;;;;;;17.60;78.30;;;;;;5063870;28;19928;-73
2022/05/08 07:41:10;;;;;;;;;;;17.60;77.90;;;;;;5044909;28;19928;-74
2022/05/08 07:43:37;;;;;;;;;;;17.60;77.90;;;;;;5062916;28;20243;-74
2022/05/08 07:46:04;;;;;;;;;;;17.60;77.80;;;;;;5072198;28;19924;-75
2022/05/08 07:48:32;;;;;;;;;;;17.60;77.60;;;;;;5050892;28;19939;-75
2022/05/08 07:51:00;;;;;;;;;;;18.70;78.70;;;;;;5057110;28;20337;-74
2022/05/08 07:53:30;;;;;;;;;;;17.70;77.50;;;;;;5058341;28;20355;-75
2022/05/08 07:55:58;;;;;;;;;;;17.70;77.50;;;;;;5057745;28;19935;-75
2022/05/08 07:58:27;;;;;;;;;;;17.70;77.40;;;;;;5039483;28;19970;-75
2022/05/08 08:00:56;;;;;;;;;;;17.70;77.30;;;;;;5056758;28;20071;-76
2022/05/08 08:03:24;;;;;;;;;;;17.70;77.20;;;;;;5042828;28;20013;-76
2022/05/08 08:05:52;;;;;;;;;;;17.70;77.30;;;;;;5058771;28;19951;-75
2022/05/08 08:08:21;;;;;;;;;;;17.70;77.20;;;;;;5057013;28;19963;-74
2022/05/08 08:10:49;;;;;;;;;;;18.80;78.40;;;;;;5040283;28;19982;-74
2022/05/08 08:13:15;;;;;;;;;;;18.10;77.40;;;;;;5058418;28;19925;-77
2022/05/08 08:15:44;;;;;;;;;;;17.70;77.00;;;;;;5040751;28;19939;-76
2022/05/08 08:18:12;;;;;;;;;;;17.70;77.70;;;;;;5041250;28;19925;-76
2022/05/08 08:20:39;;;;;;;;;;;17.70;77.30;;;;;;5059106;28;19924;-76
2022/05/08 08:23:08;;;;;;;;;;;17.70;77.20;;;;;;5040793;28;19924;-75
2022/05/08 08:25:35;;;;;;;;;;;18.80;78.10;;;;;;5059404;28;20013;-74
2022/05/08 08:28:03;;;;;;;;;;;19.30;78.80;;;;;;5056516;28;19925;-75
2022/05/08 08:30:29;;;;;;;;;;;17.70;77.30;;;;;;5038029;28;20019;-76
2022/05/08 08:32:56;;;;;;;;;;;17.70;77.40;;;;;;5047459;28;19960;-78
2022/05/08 08:35:23;;;;;;;;;;;17.70;76.80;;;;;;5041392;28;19933;-76
2022/05/08 08:37:50;;;;;;;;;;;17.70;76.70;;;;;;5039351;28;19928;-77
2022/05/08 08:40:19;;;;;;;;;;;17.70;76.90;;;;;;5060530;28;20056;-75
2022/05/08 08:42:47;;;;;;;;;;;17.70;77.20;;;;;;5058125;28;21317;-76
2022/05/08 08:48:05;;;;;;;;;;;17.80;77.40;;;;;;5056188;28;19932;-75
2022/05/08 08:50:33;;;;;;;;;;;19.30;78.50;;;;;;5038518;28;19978;-75
2022/05/08 08:53:00;;;;;;;;;;;17.80;76.90;;;;;;5056441;28;20333;-75
2022/05/08 08:55:29;;;;;;;;;;;17.80;76.90;;;;;;5052102;28;20645;-75
2022/05/08 08:57:56;;;;;;;;;;;17.80;76.60;;;;;;5065948;28;19939;-76
2022/05/08 09:00:23;;;;;;;;;;;17.80;76.70;;;;;;5058952;28;19957;-75
2022/05/08 09:02:52;;;;;;;;;;;17.80;76.10;;;;;;5059214;28;19936;-76
2022/05/08 09:05:19;;;;;;;;;;;17.80;75.30;;;;;;5053127;28;19924;-74
2022/05/08 09:07:46;;;;;;;;;;;17.80;75.60;;;;;;5065801;28;19924;-76
2022/05/08 09:10:14;;;;;;;;;;;17.80;76.00;;;;;;5058684;28;22584;-75
2022/05/08 09:12:44;;;;;;;;;;;17.80;75.80;;;;;;5032588;28;20330;-74
2022/05/08 09:15:24;;;;;;;;;;;17.80;75.10;;;;;;5057604;28;19999;-75
2022/05/08 09:17:51;;;;;;;;;;;17.80;75.10;;;;;;5059273;28;19951;-75
2022/05/08 09:20:26;;;;;;;;;;;17.80;75.20;;;;;;5060225;28;19924;-74
2022/05/08 09:23:16;;;;;;;;;;;17.80;74.90;;;;;;5041344;28;20007;-74
2022/05/08 09:25:51;;;;;;;;;;;17.80;74.70;;;;;;5041465;28;19928;-74
2022/05/08 09:28:21;;;;;;;;;;;17.90;74.50;;;;;;5053284;28;19925;-74
2022/05/08 09:30:55;;;;;;;;;;;17.90;74.10;;;;;;5057867;28;19932;-76
2022/05/08 09:33:22;;;;;;;;;;;17.90;73.80;;;;;;5063421;28;19931;-76
2022/05/08 09:35:49;;;;;;;;;;;17.90;74.10;;;;;;5028213;28;19925;-75
2022/05/08 09:38:16;;;;;;;;;;;17.90;74.50;;;;;;5065863;28;20023;-75
2022/05/08 09:40:42;;;;;;;;;;;17.90;74.60;;;;;;5056993;28;19925;-75
2022/05/08 09:43:26;;;;;;;;;;;19.20;76.20;;;;;;5035930;28;20375;-77
2022/05/08 09:46:00;;;;;;;;;;;17.90;74.60;;;;;;5062043;28;19928;-76
2022/05/08 09:48:29;;;;;;;;;;;17.90;74.60;;;;;;5044877;28;20366;-77
2022/05/08 09:50:59;;;;;;;;;;;17.90;74.50;;;;;;5060731;28;20010;-77
2022/05/08 09:53:26;;;;;;;;;;;17.90;74.50;;;;;;5060905;28;19928;-75
2022/05/08 09:55:53;;;;;;;;;;;17.90;74.60;;;;;;5042279;28;19939;-77
2022/05/08 09:58:20;;;;;;;;;;;17.90;74.40;;;;;;5060830;28;20454;-77
2022/05/08 10:00:47;;;;;;;;;;;17.90;74.60;;;;;;5043096;28;19960;-75
2022/05/08 10:03:16;;;;;;;;;;;18.80;75.60;;;;;;5059123;28;20121;-76
2022/05/08 10:05:43;;;;;;;;;;;18.00;74.60;;;;;;5057393;28;19925;-75
2022/05/08 10:08:10;;;;;;;;;;;17.90;74.60;;;;;;5062927;28;19968;-75
2022/05/08 10:14:00;;;;;;;;;;;17.90;74.70;;;;;;5036656;28;19924;-75
2022/05/08 10:16:52;;;;;;;;;;;17.90;74.60;;;;;;5060917;28;19960;-74
2022/05/08 10:19:37;;;;;;;;;;;18.00;74.50;;;;;;5041776;28;19928;-75
2022/05/08 10:22:10;;;;;;;;;;;18.00;74.50;;;;;;5052315;28;19981;-75
2022/05/08 10:24:38;;;;;;;;;;;18.00;74.50;;;;;;5074339;28;19968;-76
2022/05/08 10:27:11;;;;;;;;;;;18.60;75.10;;;;;;5084946;28;19912;-74
2022/05/08 10:29:39;;;;;;;;;;;18.00;74.50;;;;;;5063684;28;19956;-75
2022/05/08 10:32:10;;;;;;;;;;;18.80;75.40;;;;;;5063530;28;19935;-74
2022/05/08 10:34:39;;;;;;;;;;;18.00;74.20;;;;;;5066543;28;19924;-75
2022/05/08 10:37:25;;;;;;;;;;;18.00;74.10;;;;;;5065278;28;20389;-76
2022/05/08 10:39:53;;;;;;;;;;;18.00;74.20;;;;;;5059430;28;20358;-76
2022/05/08 10:42:44;;;;;;;;;;;18.00;74.30;;;;;;5059578;28;20027;-74
2022/05/08 10:45:30;;;;;;;;;;;18.00;74.00;;;;;;5043881;28;20027;-73
2022/05/08 10:47:57;;;;;;;;;;;18.00;73.80;;;;;;5058769;28;19933;-74
2022/05/08 10:50:24;;;;;;;;;;;18.20;74.10;;;;;;5028507;28;19931;-75
2022/05/08 10:52:51;;;;;;;;;;;18.00;73.90;;;;;;5061906;28;19933;-76
2022/05/08 10:55:19;;;;;;;;;;;18.00;73.70;;;;;;5041701;28;19997;-75
2022/05/08 10:57:46;;;;;;;;;;;18.00;74.00;;;;;;5057325;28;19960;-74
2022/05/08 11:00:17;;;;;;;;;;;18.00;73.80;;;;;;5058169;28;19924;-74
2022/05/08 11:02:44;;;;;;;;;;;18.00;73.50;;;;;;5056216;28;19943;-75
2022/05/08 11:05:12;;;;;;;;;;;18.20;73.80;;;;;;5056703;28;19972;-75
2022/05/08 11:07:40;;;;;;;;;;;18.00;73.50;;;;;;5057867;28;19959;-74
2022/05/08 11:10:14;;;;;;;;;;;18.30;73.80;;;;;;5038314;28;20370;-76
2022/05/08 11:12:58;;;;;;;;;;;18.00;73.50;;;;;;5053976;28;19924;-76
2022/05/08 11:15:28;;;;;;;;;;;18.00;73.30;;;;;;5059901;28;19932;-73
2022/05/08 11:18:03;;;;;;;;;;;18.10;73.40;;;;;;5033887;28;19966;-75
2022/05/08 11:20:31;;;;;;;;;;;18.10;73.30;;;;;;5042485;28;19930;-75
2022/05/08 11:22:58;;;;;;;;;;;18.00;73.10;;;;;;5040006;28;19933;-74
2022/05/08 11:25:24;;;;;;;;;;;18.10;73.20;;;;;;5040449;28;19940;-75
2022/05/08 11:28:14;;;;;;;;;;;18.10;73.10;;;;;;5052611;28;19924;-75
2022/05/08 11:30:42;;;;;;;;;;;18.00;72.90;;;;;;5041338;28;19933;-73
2022/05/08 11:36:06;;;;;;;;;;;18.10;72.90;;;;;;5058357;28;19936;-74
2022/05/08 11:38:44;;;;;;;;;;;18.10;72.90;;;;;;5054502;28;19930;-75
2022/05/08 11:41:12;;;;;;;;;;;18.10;72.90;;;;;;5038148;28;19972;-75
2022/05/08 11:43:41;;;;;;;;;;;18.30;73.00;;;;;;5049513;28;19928;-74
2022/05/08 11:46:08;;;;;;;;;;;18.10;72.70;;;;;;5057469;28;19928;-76
2022/05/08 11:48:40;;;;;;;;;;;18.10;72.70;;;;;;5055804;28;19931;-73
2022/05/08 11:51:07;;;;;;;;;;;18.10;72.40;;;;;;5057647;28;20031;-74
2022/05/08 11:53:45;;;;;;;;;;;18.10;72.50;;;;;;5055962;28;19932;-77
2022/05/08 11:56:24;;;;;;;;;;;18.10;72.30;;;;;;5059530;28;19936;-76
2022/05/08 11:58:52;;;;;;;;;;;18.10;72.30;;;;;;5051110;28;19972;-77
2022/05/08 12:01:23;;;;;;;;;;;18.10;72.20;;;;;;5039975;28;20028;-75
2022/05/08 12:03:50;;;;;;;;;;;18.10;72.10;;;;;;5055242;28;19924;-74
2022/05/08 12:06:17;;;;;;;;;;;18.10;72.10;;;;;;5053597;28;20383;-76
2022/05/08 12:09:06;;;;;;;;;;;18.10;72.00;;;;;;5055820;28;19932;-74
2022/05/08 12:11:34;;;;;;;;;;;18.10;72.10;;;;;;5057788;28;19925;-76
2022/05/08 12:14:04;;;;;;;;;;;18.10;72.10;;;;;;5059199;28;20065;-74
2022/05/08 12:16:32;;;;;;;;;;;18.10;72.00;;;;;;5057403;28;19986;-74
2022/05/08 12:19:11;;;;;;;;;;;18.10;72.20;;;;;;5037857;28;19939;-75
2022/05/08 12:21:40;;;;;;;;;;;18.10;72.00;;;;;;5057246;28;20243;-74
2022/05/08 12:24:09;;;;;;;;;;;18.10;72.00;;;;;;5058335;28;20022;-74
2022/05/08 12:26:35;;;;;;;;;;;18.60;72.50;;;;;;5050791;28;19929;-75
2022/05/08 12:29:05;;;;;;;;;;;18.10;71.60;;;;;;5053193;28;20019;-76
2022/05/08 12:31:34;;;;;;;;;;;18.20;71.50;;;;;;5053129;28;19925;-74
2022/05/08 12:34:00;;;;;;;;;;;18.10;71.60;;;;;;5040907;28;19924;-77
2022/05/08 12:36:28;;;;;;;;;;;18.10;71.20;;;;;;5057350;28;19924;-77
2022/05/08 12:38:55;;;;;;;;;;;18.10;71.40;;;;;;5055716;28;19982;-74
2022/05/08 12:41:22;;;;;;;;;;;18.10;71.60;;;;;;5047350;28;19958;-75
2022/05/08 12:43:49;;;;;;;;;;;18.10;71.70;;;;;;5054027;28;19933;-74
2022/05/08 12:46:17;;;;;;;;;;;18.10;71.40;;;;;;5052722;28;20002;-76
2022/05/08 12:48:43;;;;;;;;;;;18.80;72.00;;;;;;5033698;28;19929;-75
2022/05/08 12:51:10;;;;;;;;;;;18.10;71.40;;;;;;5047423;28;19970;-75
2022/05/08 12:53:38;;;;;;;;;;;18.10;71.30;;;;;;5049218;28;19924;-76
2022/05/08 12:56:05;;;;;;;;;;;18.10;71.50;;;;;;5042367;28;19929;-77
2022/05/08 13:01:17;;;;;;;;;;;18.10;71.20;;;;;;5057051;28;20058;-74
2022/05/08 13:03:44;;;;;;;;;;;18.90;72.10;;;;;;5062357;28;19924;-74
2022/05/08 13:06:11;;;;;;;;;;;18.10;70.90;;;;;;5066793;28;19956;-76
2022/05/08 13:08:38;;;;;;;;;;;18.10;71.00;;;;;;5080590;28;19938;-75
2022/05/08 13:11:04;;;;;;;;;;;18.10;71.00;;;;;;5059201;28;20011;-75
2022/05/08 13:13:34;;;;;;;;;;;18.10;71.00;;;;;;5058166;28;19939;-74
2022/05/08 13:16:01;;;;;;;;;;;18.60;71.60;;;;;;5052492;28;20015;-73
2022/05/08 13:18:30;;;;;;;;;;;18.10;70.80;;;;;;5057407;28;19928;-74
2022/05/08 13:20:57;;;;;;;;;;;18.10;70.70;;;;;;5061986;28;20019;-74
2022/05/08 13:23:23;;;;;;;;;;;18.10;70.50;;;;;;5051855;28;19924;-74
2022/05/08 13:25:50;;;;;;;;;;;18.10;70.80;;;;;;5058164;28;20185;-78
2022/05/08 13:28:16;;;;;;;;;;;18.10;70.50;;;;;;5045356;28;20021;-75
2022/05/08 13:30:43;;;;;;;;;;;18.10;70.40;;;;;;5051321;28;20044;-76
2022/05/08 13:33:10;;;;;;;;;;;18.10;70.10;;;;;;5051953;28;19977;-75
2022/05/08 13:35:38;;;;;;;;;;;18.10;70.20;;;;;;5053746;28;20660;-75
2022/05/08 13:38:05;;;;;;;;;;;18.10;70.40;;;;;;5066799;28;19928;-76
2022/05/08 13:40:31;;;;;;;;;;;18.40;70.60;;;;;;5057379;28;19928;-74
2022/05/08 13:42:58;;;;;;;;;;;18.10;70.20;;;;;;5062848;28;19924;-76
2022/05/08 13:45:25;;;;;;;;;;;18.10;70.30;;;;;;5050271;28;19939;-76
2022/05/08 13:47:52;;;;;;;;;;;18.10;70.20;;;;;;5061309;28;19931;-74
2022/05/08 13:50:19;;;;;;;;;;;18.50;70.70;;;;;;5063101;28;19939;-77
2022/05/08 13:52:47;;;;;;;;;;;18.10;70.10;;;;;;5074289;28;19924;-74
2022/05/08 13:55:16;;;;;;;;;;;18.10;70.10;;;;;;5053778;28;20326;-77
2022/05/08 13:57:43;;;;;;;;;;;18.10;70.10;;;;;;5061708;28;19924;-76
2022/05/08 14:00:14;;;;;;;;;;;18.10;69.90;;;;;;5055132;28;19948;-76
2022/05/08 14:02:41;;;;;;;;;;;18.10;69.90;;;;;;5033184;28;19925;-76
2022/05/08 14:05:08;;;;;;;;;;;18.10;69.90;;;;;;5054587;28;19986;-76
2022/05/08 14:07:36;;;;;;;;;;;18.10;69.90;;;;;;5051372;28;19924;-74
2022/05/08 14:10:07;;;;;;;;;;;18.10;69.70;;;;;;5049529;28;19928;-76
2022/05/08 14:12:34;;;;;;;;;;;18.10;69.60;;;;;;5050512;28;19924;-75
2022/05/08 14:15:00;;;;;;;;;;;18.10;69.60;;;;;;5054850;28;19924;-74
2022/05/08 14:17:30;;;;;;;;;;;18.10;69.70;;;;;;5058371;28;19924;-77
2022/05/08 14:19:57;;;;;;;;;;;18.10;69.70;;;;;;5061359;28;19934;-76
2022/05/08 14:22:25;;;;;;;;;;;18.10;69.60;;;;;;5060375;28;19925;-76
2022/05/08 14:25:01;;;;;;;;;;;18.10;70.10;;;;;;5063180;28;19928;-74
2022/05/08 14:27:29;;;;;;;;;;;18.10;70.60;;;;;;5056853;28;19924;-76
2022/05/08 14:29:56;;;;;;;;;;;18.10;70.20;;;;;;5058526;28;20019;-73
2022/05/08 14:38:00;;;;;;;;;;;18.20;69.80;;;;;;5051255;28;20019;-73
2022/05/08 14:40:29;;;;;;;;;;;18.30;70.00;;;;;;5061605;28;19931;-75
2022/05/08 14:42:57;;;;;;;;;;;18.40;70.00;;;;;;5059729;28;19924;-75
2022/05/08 14:45:23;;;;;;;;;;;18.80;70.10;;;;;;5051948;28;19931;-74
2022/05/08 14:47:50;;;;;;;;;;;18.10;69.40;;;;;;5060877;28;19951;-74
2022/05/08 14:50:17;;;;;;;;;;;18.70;70.00;;;;;;5061584;28;20023;-75
2022/05/08 14:52:44;;;;;;;;;;;18.10;69.40;;;;;;5037806;28;19932;-75
2022/05/08 14:55:10;;;;;;;;;;;18.20;69.50;;;;;;5061499;28;19931;-74
2022/05/08 14:57:37;;;;;;;;;;;18.10;69.40;;;;;;5058955;28;20039;-73